Terminal Aerodrome Forecast
Issued by NWS

Home | Current Version | Previous Version | Text Only | Print | Product List | Glossary On
Versions: 1 2 3 4 5 6 7 8 9 10 11 12 13 14 15 16 17 18
000
FTUS41 KCAR 230656 AAA
TAFBHB
TAF AMD
KBHB 230656Z 2307/2406 VRB03KT P6SM BKN035
     FM231500 00000KT P6SM SCT250
     FM240400 VRB02KT 2SM BR FEW002=

USA.gov is the U.S. government's official web portal to all federal, state and local government web resources and services.